Time,TemperatureF,DewpointF,PressureIn,WindDirection,WindDirectionDegrees,WindSpeedMPH,WindSpeedGustMPH,Humidity,HourlyPrecipIn,Conditions,Clouds,dailyrainin,SoftwareType,DateUTC
2013-04-14 00:00:00,27.5,27.5,27.94,NNW,328,8.0,16.0,100,0.00,CLR,CLR,0.00,WeatherDisplay:10.37,2013-04-14 05:00:00,
2013-04-14 00:10:00,27.4,27.4,27.94,NNW,331,9.0,17.0,100,0.00,CLR,CLR,0.00,WeatherDisplay:10.37,2013-04-14 05:10:00,
2013-04-14 00:20:00,27.3,27.3,27.93,NNW,327,7.0,15.0,100,0.00,CLR,CLR,0.00,WeatherDisplay:10.37,2013-04-14 05:20:00,
2013-04-14 00:30:00,27.3,27.3,27.93,NNW,330,9.0,16.0,100,0.00,CLR,CLR,0.00,WeatherDisplay:10.37,2013-04-14 05:30:00,
2013-04-14 00:40:00,27.2,27.2,27.93,NNW,331,9.0,18.0,100,0.00,CLR,CLR,0.00,WeatherDisplay:10.37,2013-04-14 05:40:00,
2013-04-14 00:50:00,27.1,27.1,27.92,NNW,333,12.0,17.0,100,0.00,CLR,CLR,0.00,WeatherDisplay:10.37,2013-04-14 05:50:00,
2013-04-14 01:00:00,27.1,27.1,27.92,NW,307,9.0,18.0,100,0.00,CLR,CLR,0.00,WeatherDisplay:10.37,2013-04-14 06:00:00,
2013-04-14 01:10:00,27.0,27.0,27.91,NW,305,9.0,21.0,100,0.00,CLR,CLR,0.00,WeatherDisplay:10.37,2013-04-14 06:10:00,
2013-04-14 01:20:00,27.0,27.0,27.89,NW,306,10.0,21.0,100,0.00,CLR,CLR,0.00,WeatherDisplay:10.37,2013-04-14 06:20:00,
2013-04-14 01:30:00,27.0,27.0,27.88,NW,307,12.0,21.0,100,0.00,CLR,CLR,0.00,WeatherDisplay:10.37,2013-04-14 06:30:00,
2013-04-14 01:40:00,27.0,27.0,27.88,NW,306,10.0,20.0,100,0.00,CLR,CLR,0.00,WeatherDisplay:10.37,2013-04-14 06:40:00,
2013-04-14 01:50:00,27.0,27.0,27.89,NW,323,9.0,22.0,100,0.00,CLR,CLR,0.00,WeatherDisplay:10.37,2013-04-14 06:50:00,
2013-04-14 02:00:00,27.0,27.0,27.89,NNW,335,12.0,20.0,100,0.00,CLR,CLR,0.00,WeatherDisplay:10.37,2013-04-14 07:00:00,
2013-04-14 02:10:00,27.0,27.0,27.89,NNW,329,10.0,21.0,100,0.00,CLR,CLR,0.00,WeatherDisplay:10.37,2013-04-14 07:10:00,
2013-04-14 02:20:00,27.0,27.0,27.89,NW,319,9.0,21.0,100,0.00,CLR,CLR,0.00,WeatherDisplay:10.37,2013-04-14 07:20:00,
2013-04-14 02:30:00,27.0,27.0,27.88,NW,322,10.0,23.0,100,0.00,CLR,CLR,0.00,WeatherDisplay:10.37,2013-04-14 07:30:00,
2013-04-14 02:40:00,27.0,27.0,27.88,NNW,333,13.0,22.0,100,0.00,CLR,CLR,0.00,WeatherDisplay:10.37,2013-04-14 07:40:00,
2013-04-14 02:50:00,27.0,27.0,27.87,NNW,330,10.0,22.0,100,0.00,CLR,CLR,0.00,WeatherDisplay:10.37,2013-04-14 07:50:00,
2013-04-14 03:00:00,27.0,27.0,27.87,NW,319,14.0,23.0,100,0.00,CLR,CLR,0.00,WeatherDisplay:10.37,2013-04-14 08:00:00,
2013-04-14 03:10:00,27.2,27.2,27.86,NW,311,13.0,22.0,100,0.00,CLR,CLR,0.00,WeatherDisplay:10.37,2013-04-14 08:10:00,
2013-04-14 03:20:00,27.2,27.2,27.86,NW,320,10.0,20.0,100,0.00,CLR,CLR,0.00,WeatherDisplay:10.37,2013-04-14 08:20:00,
2013-04-14 03:30:00,27.2,27.2,27.84,NW,319,12.0,23.0,100,0.00,CLR,CLR,0.00,WeatherDisplay:10.37,2013-04-14 08:30:00,
2013-04-14 03:40:00,27.4,27.4,27.85,NW,314,14.0,22.0,100,0.00,CLR,CLR,0.00,WeatherDisplay:10.37,2013-04-14 08:40:00,
2013-04-14 03:50:00,27.5,27.5,27.85,NW,320,13.0,23.0,100,0.00,CLR,CLR,0.00,WeatherDisplay:10.37,2013-04-14 08:50:00,
2013-04-14 04:00:00,27.6,27.6,27.84,NW,313,14.0,22.0,100,0.00,CLR,CLR,0.00,WeatherDisplay:10.37,2013-04-14 09:00:00,
2013-04-14 04:10:00,27.7,27.7,27.83,NW,312,15.0,22.0,100,0.00,CLR,CLR,0.00,WeatherDisplay:10.37,2013-04-14 09:10:00,
2013-04-14 04:20:00,27.8,27.8,27.82,NW,321,15.0,23.0,100,0.00,CLR,CLR,0.00,WeatherDisplay:10.37,2013-04-14 09:20:00,
2013-04-14 04:30:00,27.8,27.8,27.81,NW,309,15.0,23.0,100,0.00,CLR,CLR,0.00,WeatherDisplay:10.37,2013-04-14 09:30:00,
2013-04-14 04:40:00,27.9,27.9,27.81,NW,306,15.0,24.0,100,0.00,CLR,CLR,0.00,WeatherDisplay:10.37,2013-04-14 09:40:00,
2013-04-14 04:50:00,27.9,27.9,27.81,NW,318,13.0,24.0,100,0.00,CLR,CLR,0.00,WeatherDisplay:10.37,2013-04-14 09:50:00,
2013-04-14 05:00:00,28.0,28.0,27.81,NW,317,13.0,24.0,100,0.00,CLR,CLR,0.00,WeatherDisplay:10.37,2013-04-14 10:00:00,
2013-04-14 05:10:00,28.1,28.1,27.80,NW,320,12.0,23.0,100,0.00,CLR,CLR,0.00,WeatherDisplay:10.37,2013-04-14 10:10:00,
2013-04-14 05:20:00,28.1,28.1,27.79,NNW,330,10.0,23.0,100,0.00,CLR,CLR,0.00,WeatherDisplay:10.37,2013-04-14 10:20:00,
2013-04-14 05:30:00,28.0,28.0,27.79,NNW,331,13.0,25.0,100,0.00,CLR,CLR,0.00,WeatherDisplay:10.37,2013-04-14 10:30:00,
2013-04-14 05:40:00,27.9,27.9,27.78,NW,326,12.0,24.0,100,0.00,CLR,CLR,0.00,WeatherDisplay:10.37,2013-04-14 10:40:00,
2013-04-14 05:50:00,27.8,27.8,27.76,NW,316,13.0,26.0,100,0.00,CLR,CLR,0.00,WeatherDisplay:10.37,2013-04-14 10:50:00,
2013-04-14 06:00:00,27.9,27.9,27.76,NW,316,14.0,24.0,100,0.00,CLR,CLR,0.00,WeatherDisplay:10.37,2013-04-14 11:00:00,
2013-04-14 06:10:00,28.0,28.0,27.75,NW,306,17.0,29.0,100,0.00,CLR,CLR,0.00,WeatherDisplay:10.37,2013-04-14 11:10:00,
2013-04-14 06:20:00,28.0,28.0,27.74,NW,311,16.0,30.0,100,0.00,CLR,CLR,0.00,WeatherDisplay:10.37,2013-04-14 11:20:00,
2013-04-14 06:30:00,28.0,28.0,27.74,NW,312,16.0,27.0,100,0.00,CLR,CLR,0.00,WeatherDisplay:10.37,2013-04-14 11:30:00,
2013-04-14 06:40:00,28.0,28.0,27.74,NW,306,13.0,30.0,100,0.00,CLR,CLR,0.00,WeatherDisplay:10.37,2013-04-14 11:40:00,
2013-04-14 06:50:00,28.0,28.0,27.74,NW,310,14.0,27.0,100,0.00,CLR,CLR,0.00,WeatherDisplay:10.37,2013-04-14 11:50:00,
2013-04-14 06:59:00,27.9,27.9,27.74,NW,308,14.0,24.0,100,0.00,CLR,CLR,0.00,WeatherDisplay:10.37,2013-04-14 11:59:00,
2013-04-14 07:10:00,27.8,27.8,27.73,NW,321,12.0,23.0,100,0.00,CLR,CLR,0.00,WeatherDisplay:10.37,2013-04-14 12:10:00,
2013-04-14 07:20:00,27.7,27.7,27.73,NNW,328,13.0,23.0,100,0.00,CLR,CLR,0.00,WeatherDisplay:10.37,2013-04-14 12:20:00,
2013-04-14 07:30:00,27.6,27.6,27.73,NW,321,13.0,26.0,100,0.00,CLR,CLR,0.00,WeatherDisplay:10.37,2013-04-14 12:30:00,
2013-04-14 07:40:00,27.5,27.5,27.73,NW,322,14.0,24.0,100,0.00,CLR,CLR,0.00,WeatherDisplay:10.37,2013-04-14 12:40:00,
2013-04-14 07:50:00,27.5,27.5,27.72,NW,322,12.0,24.0,100,0.00,CLR,CLR,0.00,WeatherDisplay:10.37,2013-04-14 12:50:00,
2013-04-14 08:00:00,27.6,27.6,27.72,NNW,328,12.0,23.0,100,0.00,CLR,CLR,0.00,WeatherDisplay:10.37,2013-04-14 13:00:00,
2013-04-14 08:10:00,27.8,27.8,27.73,NW,323,13.0,23.0,100,0.00,CLR,CLR,0.00,WeatherDisplay:10.37,2013-04-14 13:10:00,
2013-04-14 08:20:00,28.0,28.0,27.72,NW,325,13.0,20.0,100,0.00,CLR,CLR,0.00,WeatherDisplay:10.37,2013-04-14 13:20:00,
2013-04-14 08:30:00,28.1,28.1,27.71,NW,324,9.0,23.0,100,0.00,CLR,CLR,0.00,WeatherDisplay:10.37,2013-04-14 13:30:00,
2013-04-14 08:40:00,28.3,28.3,27.69,NW,319,12.0,25.0,100,0.00,CLR,CLR,0.00,WeatherDisplay:10.37,2013-04-14 13:40:00,
2013-04-14 08:50:00,28.4,28.4,27.68,NW,321,15.0,25.0,100,0.00,CLR,CLR,0.00,WeatherDisplay:10.37,2013-04-14 13:50:00,
2013-04-14 08:59:00,28.7,28.7,27.68,NW,316,16.0,27.0,100,0.00,CLR,CLR,0.00,WeatherDisplay:10.37,2013-04-14 13:59:00,
2013-04-14 09:10:00,28.8,28.8,27.67,NW,320,13.0,24.0,100,0.00,CLR,CLR,0.00,WeatherDisplay:10.37,2013-04-14 14:10:00,
2013-04-14 09:20:00,29.0,29.0,27.67,NW,312,16.0,29.0,100,0.00,CLR,CLR,0.00,WeatherDisplay:10.37,2013-04-14 14:20:00,
2013-04-14 09:30:00,29.0,29.0,27.67,NW,312,15.0,25.0,100,0.00,CLR,CLR,0.00,WeatherDisplay:10.37,2013-04-14 14:30:00,
2013-04-14 09:40:00,29.2,29.2,27.68,NW,309,13.0,26.0,100,0.00,CLR,CLR,0.00,WeatherDisplay:10.37,2013-04-14 14:40:00,
2013-04-14 09:50:00,29.3,29.3,27.67,NW,309,16.0,23.0,100,0.00,CLR,CLR,0.00,WeatherDisplay:10.37,2013-04-14 14:50:00,
2013-04-14 09:59:00,29.5,29.5,27.67,WNW,293,12.0,25.0,100,0.00,CLR,CLR,0.00,WeatherDisplay:10.37,2013-04-14 14:59:00,
2013-04-14 10:10:00,29.6,29.6,27.67,WNW,298,14.0,26.0,100,0.00,CLR,CLR,0.00,WeatherDisplay:10.37,2013-04-14 15:10:00,
2013-04-14 10:20:00,29.7,29.7,27.67,NW,308,13.0,25.0,100,0.00,CLR,CLR,0.00,WeatherDisplay:10.37,2013-04-14 15:20:00,
2013-04-14 10:30:00,29.7,29.7,27.66,NW,314,15.0,27.0,100,0.00,CLR,CLR,0.00,WeatherDisplay:10.37,2013-04-14 15:30:00,
2013-04-14 10:40:00,29.7,29.7,27.65,NW,313,13.0,30.0,100,0.00,CLR,CLR,0.00,WeatherDisplay:10.37,2013-04-14 15:40:00,
2013-04-14 10:50:00,29.8,29.8,27.65,NW,305,12.0,22.0,100,0.00,CLR,CLR,0.00,WeatherDisplay:10.37,2013-04-14 15:50:00,
2013-04-14 10:59:00,29.9,29.9,27.64,NW,312,15.0,22.0,100,0.00,CLR,CLR,0.00,WeatherDisplay:10.37,2013-04-14 15:59:00,
2013-04-14 11:10:00,30.1,30.1,27.62,NW,306,14.0,28.0,100,0.00,CLR,CLR,0.00,WeatherDisplay:10.37,2013-04-14 16:10:00,
2013-04-14 11:20:00,30.4,30.4,27.63,NW,304,13.0,24.0,100,0.00,CLR,CLR,0.00,WeatherDisplay:10.37,2013-04-14 16:20:00,
2013-04-14 11:30:00,30.5,30.5,27.61,WNW,303,17.0,29.0,100,0.00,CLR,CLR,0.00,WeatherDisplay:10.37,2013-04-14 16:30:00,
2013-04-14 11:40:00,30.6,30.6,27.61,WNW,299,14.0,28.0,100,0.00,CLR,CLR,0.00,WeatherDisplay:10.37,2013-04-14 16:40:00,
2013-04-14 11:50:00,30.7,30.7,27.61,WNW,292,14.0,32.0,100,0.00,CLR,CLR,0.00,WeatherDisplay:10.37,2013-04-14 16:50:00,
2013-04-14 11:59:00,30.8,30.8,27.61,WNW,287,10.0,24.0,100,0.00,CLR,CLR,0.00,WeatherDisplay:10.37,2013-04-14 16:59:00,
2013-04-14 12:10:00,31.0,31.0,27.60,West,279,12.0,23.0,100,0.00,CLR,CLR,0.00,WeatherDisplay:10.37,2013-04-14 17:10:00,
2013-04-14 12:20:00,31.1,31.1,27.60,West,277,12.0,20.0,100,0.00,CLR,CLR,0.00,WeatherDisplay:10.37,2013-04-14 17:20:00,
2013-04-14 12:30:00,31.2,31.2,27.59,WNW,294,13.0,22.0,100,0.00,CLR,CLR,0.00,WeatherDisplay:10.37,2013-04-14 17:30:00,
2013-04-14 12:40:00,31.4,31.4,27.59,West,274,9.0,22.0,100,0.00,CLR,CLR,0.00,WeatherDisplay:10.37,2013-04-14 17:40:00,
2013-04-14 12:50:00,31.4,31.4,27.58,West,274,9.0,24.0,100,0.00,CLR,CLR,0.00,WeatherDisplay:10.37,2013-04-14 17:50:00,
2013-04-14 12:59:00,31.6,31.6,27.58,West,259,7.0,20.0,100,0.00,CLR,CLR,0.00,WeatherDisplay:10.37,2013-04-14 17:59:00,
2013-04-14 13:10:00,31.7,31.7,27.57,West,267,12.0,21.0,100,0.00,CLR,CLR,0.00,WeatherDisplay:10.37,2013-04-14 18:10:00,
2013-04-14 13:20:00,31.8,31.8,27.57,West,265,8.0,20.0,100,0.00,CLR,CLR,0.00,WeatherDisplay:10.37,2013-04-14 18:20:00,
2013-04-14 13:30:00,31.8,31.8,27.56,West,260,9.0,17.0,100,0.00,CLR,CLR,0.00,WeatherDisplay:10.37,2013-04-14 18:30:00,
2013-04-14 13:40:00,31.9,31.9,27.55,WSW,252,9.0,21.0,100,0.00,CLR,CLR,0.00,WeatherDisplay:10.37,2013-04-14 18:40:00,
2013-04-14 13:50:00,32.0,32.0,27.49,West,278,14.0,23.0,100,0.00,CLR,CLR,0.00,WeatherDisplay:10.37,2013-04-14 18:50:00,
2013-04-14 13:59:00,32.1,32.1,27.49,WNW,286,10.0,28.0,100,0.00,CLR,CLR,0.00,WeatherDisplay:10.37,2013-04-14 18:59:00,
2013-04-14 14:10:00,32.3,32.3,27.53,West,275,8.0,26.0,100,0.00,CLR,CLR,0.00,WeatherDisplay:10.37,2013-04-14 19:10:00,
2013-04-14 14:20:00,32.4,32.4,27.56,SW,235,3.0,16.0,100,0.00,,,0.00,WeatherDisplay:10.37,2013-04-14 19:20:00,
2013-04-14 14:30:00,32.5,32.5,27.55,WNW,283,5.0,13.0,100,0.00,,,0.00,WeatherDisplay:10.37,2013-04-14 19:30:00,
2013-04-14 14:40:00,32.5,32.5,27.55,West,273,7.0,21.0,100,0.00,CLR,CLR,0.00,WeatherDisplay:10.37,2013-04-14 19:40:00,
2013-04-14 14:50:00,32.5,32.5,27.55,WNW,284,7.0,15.0,100,0.00,CLR,CLR,0.00,WeatherDisplay:10.37,2013-04-14 19:50:00,
2013-04-14 14:59:00,32.5,32.5,27.55,West,278,7.0,17.0,100,0.00,CLR,CLR,0.00,WeatherDisplay:10.37,2013-04-14 19:59:00,
2013-04-14 15:10:00,32.6,32.6,27.55,WSW,250,5.0,12.0,100,0.00,,,0.00,WeatherDisplay:10.37,2013-04-14 20:10:00,
2013-04-14 15:20:00,32.5,32.5,27.54,West,272,5.0,10.0,100,0.00,,,0.00,WeatherDisplay:10.37,2013-04-14 20:20:00,
2013-04-14 15:30:00,32.5,32.5,27.53,WNW,284,7.0,14.0,100,0.00,CLR,CLR,0.00,WeatherDisplay:10.37,2013-04-14 20:30:00,
2013-04-14 15:40:00,32.4,32.4,27.53,WNW,287,9.0,15.0,100,0.00,CLR,CLR,0.00,WeatherDisplay:10.37,2013-04-14 20:40:00,
2013-04-14 15:50:00,32.4,32.4,27.52,NW,304,9.0,14.0,100,0.00,CLR,CLR,0.00,WeatherDisplay:10.37,2013-04-14 20:50:00,
2013-04-14 15:59:00,32.4,32.4,27.51,NW,310,8.0,15.0,100,0.00,CLR,CLR,0.00,WeatherDisplay:10.37,2013-04-14 20:59:00,
2013-04-14 16:10:00,32.4,32.4,27.51,NW,315,8.0,14.0,100,0.00,CLR,CLR,0.00,WeatherDisplay:10.37,2013-04-14 21:10:00,
2013-04-14 16:20:00,32.5,32.5,27.51,NW,319,6.0,12.0,100,0.00,CLR,CLR,0.00,WeatherDisplay:10.37,2013-04-14 21:20:00,
2013-04-14 16:30:00,32.4,32.4,27.51,NW,314,6.0,12.0,100,0.00,CLR,CLR,0.00,WeatherDisplay:10.37,2013-04-14 21:30:00,
2013-04-14 16:40:00,32.4,32.4,27.51,NW,309,5.0,10.0,100,0.00,,,0.00,WeatherDisplay:10.37,2013-04-14 21:40:00,
2013-04-14 16:50:00,32.4,32.4,27.51,WNW,294,7.0,10.0,100,0.00,,,0.00,WeatherDisplay:10.37,2013-04-14 21:50:00,
2013-04-14 16:59:00,32.5,32.5,27.51,WNW,300,7.0,12.0,100,0.00,,,0.00,WeatherDisplay:10.37,2013-04-14 21:59:00,
2013-04-14 17:10:00,32.9,32.9,27.51,West,278,3.0,10.0,100,0.00,,,0.00,WeatherDisplay:10.37,2013-04-14 22:10:00,
2013-04-14 17:20:00,32.7,32.7,27.52,West,273,5.0,8.0,100,0.00,,,0.00,WeatherDisplay:10.37,2013-04-14 22:20:00,
2013-04-14 17:30:00,32.9,32.9,27.52,WSW,247,2.0,8.0,100,0.00,,,0.00,WeatherDisplay:10.37,2013-04-14 22:30:00,
2013-04-14 17:40:00,33.2,33.2,27.52,SW,225,3.0,7.0,100,0.00,,,0.00,WeatherDisplay:10.37,2013-04-14 22:40:00,
2013-04-14 17:50:00,32.9,32.9,27.52,SW,235,2.0,9.0,100,0.00,,,0.00,WeatherDisplay:10.37,2013-04-14 22:50:00,
2013-04-14 17:59:00,32.8,32.8,27.53,SW,228,2.0,6.0,100,0.00,,,0.00,WeatherDisplay:10.37,2013-04-14 22:59:00,
2013-04-14 18:10:00,32.9,32.9,27.53,WSW,247,1.0,6.0,100,0.00,,,0.00,WeatherDisplay:10.37,2013-04-14 23:10:00,
2013-04-14 18:20:00,32.9,32.9,27.54,WSW,238,3.0,5.0,100,0.00,,,0.00,WeatherDisplay:10.37,2013-04-14 23:20:00,
2013-04-14 18:30:00,32.8,32.8,27.54,SW,234,2.0,6.0,100,0.00,,,0.00,WeatherDisplay:10.37,2013-04-14 23:30:00,
2013-04-14 18:40:00,32.9,32.9,27.54,WSW,242,5.0,7.0,100,0.00,,,0.00,WeatherDisplay:10.37,2013-04-14 23:40:00,
2013-04-14 18:50:00,33.8,33.8,27.54,West,281,15.0,20.0,100,0.00,CLR,CLR,0.00,WeatherDisplay:10.37,2013-04-14 23:50:00,
2013-04-14 19:00:00,34.3,34.3,27.55,WNW,284,12.0,20.0,100,0.00,CLR,CLR,0.00,WeatherDisplay:10.37,2013-04-15 00:00:00,
2013-04-14 19:10:00,34.1,34.1,27.55,WNW,283,14.0,20.0,100,0.00,CLR,CLR,0.00,WeatherDisplay:10.37,2013-04-15 00:10:00,
2013-04-14 19:20:00,34.0,34.0,27.55,WNW,285,13.0,22.0,100,0.00,CLR,CLR,0.00,WeatherDisplay:10.37,2013-04-15 00:20:00,
2013-04-14 19:30:00,33.9,33.9,27.55,WNW,287,15.0,24.0,100,0.00,CLR,CLR,0.00,WeatherDisplay:10.37,2013-04-15 00:30:00,
2013-04-14 19:40:00,33.8,33.8,27.55,WNW,284,16.0,27.0,100,0.00,CLR,CLR,0.00,WeatherDisplay:10.37,2013-04-15 00:40:00,
2013-04-14 19:50:00,33.8,33.8,27.55,West,280,13.0,21.0,100,0.00,CLR,CLR,0.00,WeatherDisplay:10.37,2013-04-15 00:50:00,
2013-04-14 20:00:00,33.8,33.8,27.56,WNW,282,14.0,22.0,100,0.00,CLR,CLR,0.00,WeatherDisplay:10.37,2013-04-15 01:00:00,
2013-04-14 20:10:00,33.7,33.7,27.56,West,281,13.0,22.0,100,0.00,CLR,CLR,0.00,WeatherDisplay:10.37,2013-04-15 01:10:00,
2013-04-14 20:20:00,33.6,33.6,27.56,West,281,14.0,22.0,100,0.00,CLR,CLR,0.00,WeatherDisplay:10.37,2013-04-15 01:20:00,
2013-04-14 20:30:00,33.7,33.7,27.56,WNW,282,16.0,23.0,100,0.00,CLR,CLR,0.00,WeatherDisplay:10.37,2013-04-15 01:30:00,
2013-04-14 20:40:00,33.6,33.6,27.56,West,281,16.0,26.0,100,0.00,CLR,CLR,0.00,WeatherDisplay:10.37,2013-04-15 01:40:00,
2013-04-14 20:50:00,33.6,33.6,27.56,West,281,18.0,27.0,100,0.00,CLR,CLR,0.00,WeatherDisplay:10.37,2013-04-15 01:50:00,
2013-04-14 21:00:00,33.6,33.6,27.57,West,278,16.0,25.0,100,0.00,CLR,CLR,0.00,WeatherDisplay:10.37,2013-04-15 02:00:00,
2013-04-14 21:10:00,33.5,33.5,27.57,West,278,20.0,28.0,100,0.00,CLR,CLR,0.00,WeatherDisplay:10.37,2013-04-15 02:10:00,
2013-04-14 21:20:00,33.6,33.6,27.57,West,278,17.0,30.0,100,0.00,CLR,CLR,0.00,WeatherDisplay:10.37,2013-04-15 02:20:00,
2013-04-14 21:30:00,33.5,33.5,27.58,West,280,18.0,30.0,100,0.00,CLR,CLR,0.00,WeatherDisplay:10.37,2013-04-15 02:30:00,
2013-04-14 21:40:00,33.4,33.4,27.58,West,277,17.0,28.0,100,0.00,CLR,CLR,0.00,WeatherDisplay:10.37,2013-04-15 02:40:00,
2013-04-14 21:50:00,33.3,33.3,27.58,West,279,20.0,30.0,100,0.00,CLR,CLR,0.00,WeatherDisplay:10.37,2013-04-15 02:50:00,
2013-04-14 21:59:00,33.2,33.2,27.58,West,279,23.0,31.0,100,0.00,CLR,CLR,0.00,WeatherDisplay:10.37,2013-04-15 02:59:00,
2013-04-14 22:10:00,33.0,33.0,27.58,West,280,24.0,35.0,100,0.00,CLR,CLR,0.00,WeatherDisplay:10.37,2013-04-15 03:10:00,
2013-04-14 22:20:00,32.8,32.8,27.58,WNW,282,21.0,35.0,100,0.00,CLR,CLR,0.00,WeatherDisplay:10.37,2013-04-15 03:20:00,
2013-04-14 22:30:00,32.7,32.7,27.58,West,280,18.0,32.0,100,0.00,CLR,CLR,0.00,WeatherDisplay:10.37,2013-04-15 03:30:00,
2013-04-14 22:40:00,32.3,32.3,27.58,WNW,283,22.0,32.0,100,0.00,CLR,CLR,0.00,WeatherDisplay:10.37,2013-04-15 03:40:00,
2013-04-14 22:50:00,31.8,31.8,27.58,WNW,282,20.0,38.0,100,0.00,CLR,CLR,0.00,WeatherDisplay:10.37,2013-04-15 03:50:00,
2013-04-14 23:00:00,31.7,31.7,27.58,WNW,283,20.0,35.0,100,0.00,CLR,CLR,0.00,WeatherDisplay:10.37,2013-04-15 04:00:00,
2013-04-14 23:10:00,31.3,31.3,27.58,WNW,286,23.0,35.0,100,0.00,CLR,CLR,0.00,WeatherDisplay:10.37,2013-04-15 04:10:00,
2013-04-14 23:20:00,31.2,31.0,27.58,WNW,291,20.0,40.0,99,0.00,CLR,CLR,0.00,WeatherDisplay:10.37,2013-04-15 04:20:00,
2013-04-14 23:30:00,30.9,30.4,27.58,WNW,294,25.0,40.0,98,0.00,CLR,CLR,0.00,WeatherDisplay:10.37,2013-04-15 04:30:00,
2013-04-14 23:40:00,30.7,29.9,27.59,WNW,298,24.0,41.0,97,0.00,CLR,CLR,0.00,WeatherDisplay:10.37,2013-04-15 04:40:00,
2013-04-14 23:50:00,30.6,29.9,27.59,WNW,298,22.0,35.0,97,0.00,CLR,CLR,0.00,WeatherDisplay:10.37,2013-04-15 04:50:00,
2013-04-14 23:59:00,30.5,29.5,27.59,WNW,297,18.0,32.0,96,0.00,CLR,CLR,0.00,WeatherDisplay:10.37,2013-04-15 04:59:00,